sensor_id;sensor_type;location;lat;lon;timestamp;temperature;humidity
10270;DHT22;70826;50.930;5.334;2023-06-26T00:02:05;28.30;83.70
10270;DHT22;70826;50.930;5.334;2023-06-26T00:04:33;28.30;83.60
10270;DHT22;70826;50.930;5.334;2023-06-26T00:07:04;28.30;83.70
10270;DHT22;70826;50.930;5.334;2023-06-26T00:09:34;28.30;83.70
10270;DHT22;70826;50.930;5.334;2023-06-26T00:12:00;28.30;83.70
10270;DHT22;70826;50.930;5.334;2023-06-26T00:14:26;28.30;83.70
10270;DHT22;70826;50.930;5.334;2023-06-26T00:16:53;28.30;83.70
10270;DHT22;70826;50.930;5.334;2023-06-26T00:19:21;28.30;83.70
10270;DHT22;70826;50.930;5.334;2023-06-26T00:21:49;28.40;83.80
10270;DHT22;70826;50.930;5.334;2023-06-26T00:24:17;28.40;83.80
10270;DHT22;70826;50.930;5.334;2023-06-26T00:26:46;28.30;83.70
10270;DHT22;70826;50.930;5.334;2023-06-26T00:29:12;28.30;83.70
10270;DHT22;70826;50.930;5.334;2023-06-26T00:31:38;28.40;83.70
10270;DHT22;70826;50.930;5.334;2023-06-26T00:34:05;28.40;83.70
10270;DHT22;70826;50.930;5.334;2023-06-26T00:36:31;28.30;83.60
10270;DHT22;70826;50.930;5.334;2023-06-26T00:38:58;28.30;83.70
10270;DHT22;70826;50.930;5.334;2023-06-26T00:41:24;28.30;83.60
10270;DHT22;70826;50.930;5.334;2023-06-26T00:43:49;28.30;83.60
10270;DHT22;70826;50.930;5.334;2023-06-26T00:46:17;28.30;83.60
10270;DHT22;70826;50.930;5.334;2023-06-26T00:48:48;28.30;83.60
10270;DHT22;70826;50.930;5.334;2023-06-26T00:51:17;28.30;83.60
10270;DHT22;70826;50.930;5.334;2023-06-26T00:53:45;28.30;83.70
10270;DHT22;70826;50.930;5.334;2023-06-26T00:56:15;28.40;83.80
10270;DHT22;70826;50.930;5.334;2023-06-26T00:58:48;28.40;83.80
10270;DHT22;70826;50.930;5.334;2023-06-26T01:01:14;28.30;83.70
10270;DHT22;70826;50.930;5.334;2023-06-26T01:03:43;28.30;83.70
10270;DHT22;70826;50.930;5.334;2023-06-26T01:06:13;28.30;83.70
10270;DHT22;70826;50.930;5.334;2023-06-26T01:08:41;28.30;83.70
10270;DHT22;70826;50.930;5.334;2023-06-26T01:11:07;28.30;83.70
10270;DHT22;70826;50.930;5.334;2023-06-26T01:13:34;28.30;83.70
10270;DHT22;70826;50.930;5.334;2023-06-26T01:16:01;28.30;83.70
10270;DHT22;70826;50.930;5.334;2023-06-26T01:18:29;28.30;83.70
10270;DHT22;70826;50.930;5.334;2023-06-26T01:20:56;28.30;83.70
10270;DHT22;70826;50.930;5.334;2023-06-26T01:23:42;28.30;83.70
10270;DHT22;70826;50.930;5.334;2023-06-26T01:26:21;28.30;83.80
10270;DHT22;70826;50.930;5.334;2023-06-26T01:28:53;28.30;83.70
10270;DHT22;70826;50.930;5.334;2023-06-26T01:31:21;28.30;83.70
10270;DHT22;70826;50.930;5.334;2023-06-26T01:33:50;28.30;83.70
10270;DHT22;70826;50.930;5.334;2023-06-26T01:36:19;28.30;83.70
10270;DHT22;70826;50.930;5.334;2023-06-26T01:38:48;28.30;83.60
10270;DHT22;70826;50.930;5.334;2023-06-26T01:41:14;28.30;83.70
10270;DHT22;70826;50.930;5.334;2023-06-26T01:46:22;28.30;83.70
10270;DHT22;70826;50.930;5.334;2023-06-26T01:49:02;28.30;83.70
10270;DHT22;70826;50.930;5.334;2023-06-26T01:51:38;28.30;83.60
10270;DHT22;70826;50.930;5.334;2023-06-26T01:54:18;28.30;83.60
10270;DHT22;70826;50.930;5.334;2023-06-26T01:56:49;28.30;83.60
10270;DHT22;70826;50.930;5.334;2023-06-26T01:59:19;28.30;83.60
10270;DHT22;70826;50.930;5.334;2023-06-26T02:01:49;28.30;83.60
10270;DHT22;70826;50.930;5.334;2023-06-26T02:04:19;28.30;83.60
10270;DHT22;70826;50.930;5.334;2023-06-26T02:06:49;28.30;83.70
10270;DHT22;70826;50.930;5.334;2023-06-26T02:09:20;28.30;83.70
10270;DHT22;70826;50.930;5.334;2023-06-26T02:11:45;28.30;83.70
10270;DHT22;70826;50.930;5.334;2023-06-26T02:14:13;28.30;83.70
10270;DHT22;70826;50.930;5.334;2023-06-26T02:16:39;28.30;83.80
10270;DHT22;70826;50.930;5.334;2023-06-26T02:19:05;28.30;83.70
10270;DHT22;70826;50.930;5.334;2023-06-26T02:21:30;28.30;83.80
10270;DHT22;70826;50.930;5.334;2023-06-26T02:23:58;28.30;83.80
10270;DHT22;70826;50.930;5.334;2023-06-26T02:26:26;28.30;83.80
10270;DHT22;70826;50.930;5.334;2023-06-26T02:28:53;28.30;83.80
10270;DHT22;70826;50.930;5.334;2023-06-26T02:31:19;28.30;83.80
10270;DHT22;70826;50.930;5.334;2023-06-26T02:33:45;28.30;83.80
10270;DHT22;70826;50.930;5.334;2023-06-26T02:36:13;28.30;83.80
10270;DHT22;70826;50.930;5.334;2023-06-26T02:38:39;28.30;83.80
10270;DHT22;70826;50.930;5.334;2023-06-26T02:41:05;28.30;83.80
10270;DHT22;70826;50.930;5.334;2023-06-26T02:43:31;28.30;83.80
10270;DHT22;70826;50.930;5.334;2023-06-26T02:45:57;28.30;83.80
10270;DHT22;70826;50.930;5.334;2023-06-26T02:48:23;28.30;83.80
10270;DHT22;70826;50.930;5.334;2023-06-26T02:50:51;28.30;83.80
10270;DHT22;70826;50.930;5.334;2023-06-26T02:53:17;28.30;83.80
10270;DHT22;70826;50.930;5.334;2023-06-26T02:55:45;28.30;83.70
10270;DHT22;70826;50.930;5.334;2023-06-26T02:58:15;28.30;83.70
10270;DHT22;70826;50.930;5.334;2023-06-26T03:00:41;28.30;83.70
10270;DHT22;70826;50.930;5.334;2023-06-26T03:03:11;28.30;83.70
10270;DHT22;70826;50.930;5.334;2023-06-26T03:05:40;28.30;83.70
10270;DHT22;70826;50.930;5.334;2023-06-26T03:08:08;28.30;83.70
10270;DHT22;70826;50.930;5.334;2023-06-26T03:10:33;28.30;83.60
10270;DHT22;70826;50.930;5.334;2023-06-26T03:13:02;28.30;83.60
10270;DHT22;70826;50.930;5.334;2023-06-26T03:15:30;28.30;83.60
10270;DHT22;70826;50.930;5.334;2023-06-26T03:17:58;28.30;83.60
10270;DHT22;70826;50.930;5.334;2023-06-26T03:20:26;28.30;83.60
10270;DHT22;70826;50.930;5.334;2023-06-26T03:22:54;28.30;83.50
10270;DHT22;70826;50.930;5.334;2023-06-26T03:25:20;28.30;83.50
10270;DHT22;70826;50.930;5.334;2023-06-26T03:27:46;28.30;83.50
10270;DHT22;70826;50.930;5.334;2023-06-26T03:30:12;28.30;83.50
10270;DHT22;70826;50.930;5.334;2023-06-26T03:32:40;28.30;83.50
10270;DHT22;70826;50.930;5.334;2023-06-26T03:35:06;28.30;83.50
10270;DHT22;70826;50.930;5.334;2023-06-26T03:37:34;28.30;83.50
10270;DHT22;70826;50.930;5.334;2023-06-26T03:40:00;28.30;84.10
10270;DHT22;70826;50.930;5.334;2023-06-26T03:42:27;28.30;83.40
10270;DHT22;70826;50.930;5.334;2023-06-26T03:44:55;28.30;83.40
10270;DHT22;70826;50.930;5.334;2023-06-26T03:47:23;28.30;83.40
10270;DHT22;70826;50.930;5.334;2023-06-26T03:49:51;28.30;83.40
10270;DHT22;70826;50.930;5.334;2023-06-26T03:52:17;28.30;83.30
10270;DHT22;70826;50.930;5.334;2023-06-26T03:54:46;28.30;83.30
10270;DHT22;70826;50.930;5.334;2023-06-26T03:57:16;28.30;83.30
10270;DHT22;70826;50.930;5.334;2023-06-26T03:59:48;28.30;83.30
10270;DHT22;70826;50.930;5.334;2023-06-26T04:02:14;28.30;83.30
10270;DHT22;70826;50.930;5.334;2023-06-26T04:04:39;28.30;83.30
10270;DHT22;70826;50.930;5.334;2023-06-26T04:07:05;28.30;83.20
10270;DHT22;70826;50.930;5.334;2023-06-26T04:09:34;28.30;83.20
10270;DHT22;70826;50.930;5.334;2023-06-26T04:11:59;28.30;83.20
10270;DHT22;70826;50.930;5.334;2023-06-26T04:14:28;28.30;83.20
10270;DHT22;70826;50.930;5.334;2023-06-26T04:16:57;28.30;83.20
10270;DHT22;70826;50.930;5.334;2023-06-26T04:19:23;28.30;83.20
10270;DHT22;70826;50.930;5.334;2023-06-26T04:21:52;28.30;83.20
10270;DHT22;70826;50.930;5.334;2023-06-26T04:24:18;28.30;83.20
10270;DHT22;70826;50.930;5.334;2023-06-26T04:26:44;28.30;83.20
10270;DHT22;70826;50.930;5.334;2023-06-26T04:29:13;28.30;83.20
10270;DHT22;70826;50.930;5.334;2023-06-26T04:31:39;28.30;83.20
10270;DHT22;70826;50.930;5.334;2023-06-26T04:34:07;28.30;83.20
10270;DHT22;70826;50.930;5.334;2023-06-26T04:36:36;28.30;83.20
10270;DHT22;70826;50.930;5.334;2023-06-26T04:39:04;28.30;83.20
10270;DHT22;70826;50.930;5.334;2023-06-26T04:41:32;28.30;83.20
10270;DHT22;70826;50.930;5.334;2023-06-26T04:43:58;28.30;83.20
10270;DHT22;70826;50.930;5.334;2023-06-26T04:46:24;28.30;83.20
10270;DHT22;70826;50.930;5.334;2023-06-26T04:48:52;28.30;83.20
10270;DHT22;70826;50.930;5.334;2023-06-26T04:51:18;28.30;83.20
10270;DHT22;70826;50.930;5.334;2023-06-26T04:53:48;28.30;83.20
10270;DHT22;70826;50.930;5.334;2023-06-26T04:56:16;28.30;83.20
10270;DHT22;70826;50.930;5.334;2023-06-26T04:58:47;28.30;83.20
10270;DHT22;70826;50.930;5.334;2023-06-26T05:01:15;28.30;83.20
10270;DHT22;70826;50.930;5.334;2023-06-26T05:03:44;28.30;83.30
10270;DHT22;70826;50.930;5.334;2023-06-26T05:06:12;28.30;83.20
10270;DHT22;70826;50.930;5.334;2023-06-26T05:08:39;28.30;83.20
10270;DHT22;70826;50.930;5.334;2023-06-26T05:11:05;28.30;83.30
10270;DHT22;70826;50.930;5.334;2023-06-26T05:13:34;28.30;83.30
10270;DHT22;70826;50.930;5.334;2023-06-26T05:16:00;28.30;83.30
10270;DHT22;70826;50.930;5.334;2023-06-26T05:18:25;28.30;83.30
10270;DHT22;70826;50.930;5.334;2023-06-26T05:20:54;28.30;83.30
10270;DHT22;70826;50.930;5.334;2023-06-26T05:23:20;28.30;83.30
10270;DHT22;70826;50.930;5.334;2023-06-26T05:25:47;28.30;83.30
10270;DHT22;70826;50.930;5.334;2023-06-26T05:28:15;28.30;83.40
10270;DHT22;70826;50.930;5.334;2023-06-26T05:30:42;28.30;83.40
10270;DHT22;70826;50.930;5.334;2023-06-26T05:33:11;28.30;83.40
10270;DHT22;70826;50.930;5.334;2023-06-26T05:35:42;28.30;83.40
10270;DHT22;70826;50.930;5.334;2023-06-26T05:38:10;28.30;83.40
10270;DHT22;70826;50.930;5.334;2023-06-26T05:40:36;28.30;83.40
10270;DHT22;70826;50.930;5.334;2023-06-26T05:43:05;28.30;83.40
10270;DHT22;70826;50.930;5.334;2023-06-26T05:45:35;28.30;83.40
10270;DHT22;70826;50.930;5.334;2023-06-26T05:48:01;28.30;83.40
10270;DHT22;70826;50.930;5.334;2023-06-26T05:50:28;28.30;83.40
10270;DHT22;70826;50.930;5.334;2023-06-26T05:52:59;28.30;83.40
10270;DHT22;70826;50.930;5.334;2023-06-26T05:55:34;28.30;83.40
10270;DHT22;70826;50.930;5.334;2023-06-26T05:58:02;28.30;83.40
10270;DHT22;70826;50.930;5.334;2023-06-26T06:00:33;28.30;83.40
10270;DHT22;70826;50.930;5.334;2023-06-26T06:03:01;28.30;83.40
10270;DHT22;70826;50.930;5.334;2023-06-26T06:05:31;28.30;83.40
10270;DHT22;70826;50.930;5.334;2023-06-26T06:08:02;28.30;83.40
10270;DHT22;70826;50.930;5.334;2023-06-26T06:10:30;28.30;83.40
10270;DHT22;70826;50.930;5.334;2023-06-26T06:13:00;28.30;83.40
10270;DHT22;70826;50.930;5.334;2023-06-26T06:15:28;28.30;83.40
10270;DHT22;70826;50.930;5.334;2023-06-26T06:17:54;28.30;83.40
10270;DHT22;70826;50.930;5.334;2023-06-26T06:20:21;28.30;83.40
10270;DHT22;70826;50.930;5.334;2023-06-26T06:22:49;28.30;83.40
10270;DHT22;70826;50.930;5.334;2023-06-26T06:25:20;28.30;83.40
10270;DHT22;70826;50.930;5.334;2023-06-26T06:27:46;28.30;83.40
10270;DHT22;70826;50.930;5.334;2023-06-26T06:30:12;28.30;83.40
10270;DHT22;70826;50.930;5.334;2023-06-26T06:32:43;28.30;83.40
10270;DHT22;70826;50.930;5.334;2023-06-26T06:35:12;28.20;83.40
10270;DHT22;70826;50.930;5.334;2023-06-26T06:37:45;28.30;83.40
10270;DHT22;70826;50.930;5.334;2023-06-26T06:40:13;28.30;83.40
10270;DHT22;70826;50.930;5.334;2023-06-26T06:42:39;28.20;83.40
10270;DHT22;70826;50.930;5.334;2023-06-26T06:45:05;28.30;83.50
10270;DHT22;70826;50.930;5.334;2023-06-26T06:47:34;28.20;83.40
10270;DHT22;70826;50.930;5.334;2023-06-26T06:50:02;28.30;83.40
10270;DHT22;70826;50.930;5.334;2023-06-26T06:52:38;28.30;83.40
10270;DHT22;70826;50.930;5.334;2023-06-26T06:55:07;28.30;83.40
10270;DHT22;70826;50.930;5.334;2023-06-26T06:57:38;28.30;83.40
10270;DHT22;70826;50.930;5.334;2023-06-26T07:00:09;28.30;83.40
10270;DHT22;70826;50.930;5.334;2023-06-26T07:02:38;28.30;83.30
10270;DHT22;70826;50.930;5.334;2023-06-26T07:05:07;28.30;83.30
10270;DHT22;70826;50.930;5.334;2023-06-26T07:07:35;28.30;83.30
10270;DHT22;70826;50.930;5.334;2023-06-26T07:10:09;28.30;83.20
10270;DHT22;70826;50.930;5.334;2023-06-26T07:12:37;28.20;83.10
10270;DHT22;70826;50.930;5.334;2023-06-26T07:15:06;28.30;83.40
10270;DHT22;70826;50.930;5.334;2023-06-26T07:17:35;28.30;83.50
10270;DHT22;70826;50.930;5.334;2023-06-26T07:20:01;28.20;83.60
10270;DHT22;70826;50.930;5.334;2023-06-26T07:22:31;28.20;83.60
10270;DHT22;70826;50.930;5.334;2023-06-26T07:24:57;28.20;83.20
10270;DHT22;70826;50.930;5.334;2023-06-26T07:27:26;28.20;83.20
10270;DHT22;70826;50.930;5.334;2023-06-26T07:29:53;28.20;83.00
10270;DHT22;70826;50.930;5.334;2023-06-26T07:32:22;28.20;83.00
10270;DHT22;70826;50.930;5.334;2023-06-26T07:34:50;28.20;82.60
10270;DHT22;70826;50.930;5.334;2023-06-26T07:37:18;28.30;82.60
10270;DHT22;70826;50.930;5.334;2023-06-26T07:39:47;28.30;82.40
10270;DHT22;70826;50.930;5.334;2023-06-26T07:42:13;28.30;82.10
10270;DHT22;70826;50.930;5.334;2023-06-26T07:44:38;28.30;81.90
10270;DHT22;70826;50.930;5.334;2023-06-26T07:47:06;28.30;81.70
10270;DHT22;70826;50.930;5.334;2023-06-26T07:49:34;28.40;81.60
10270;DHT22;70826;50.930;5.334;2023-06-26T07:52:00;28.40;81.50
10270;DHT22;70826;50.930;5.334;2023-06-26T07:54:26;28.50;81.40
10270;DHT22;70826;50.930;5.334;2023-06-26T07:57:00;28.50;81.20
10270;DHT22;70826;50.930;5.334;2023-06-26T07:59:28;28.60;81.00
10270;DHT22;70826;50.930;5.334;2023-06-26T08:01:55;28.60;80.80
10270;DHT22;70826;50.930;5.334;2023-06-26T08:04:24;28.70;80.60
10270;DHT22;70826;50.930;5.334;2023-06-26T08:06:53;28.80;80.40
10270;DHT22;70826;50.930;5.334;2023-06-26T08:09:19;28.80;80.00
10270;DHT22;70826;50.930;5.334;2023-06-26T08:11:47;28.90;79.90
10270;DHT22;70826;50.930;5.334;2023-06-26T08:14:16;29.00;79.80
10270;DHT22;70826;50.930;5.334;2023-06-26T08:16:45;29.00;79.70
10270;DHT22;70826;50.930;5.334;2023-06-26T08:19:12;29.00;79.60
10270;DHT22;70826;50.930;5.334;2023-06-26T08:21:40;29.00;79.40
10270;DHT22;70826;50.930;5.334;2023-06-26T08:24:08;29.10;79.30
10270;DHT22;70826;50.930;5.334;2023-06-26T08:26:38;29.10;79.10
10270;DHT22;70826;50.930;5.334;2023-06-26T08:29:05;29.20;79.30
10270;DHT22;70826;50.930;5.334;2023-06-26T08:31:39;29.20;79.20
10270;DHT22;70826;50.930;5.334;2023-06-26T08:34:05;29.20;78.80
10270;DHT22;70826;50.930;5.334;2023-06-26T08:36:34;29.20;78.50
10270;DHT22;70826;50.930;5.334;2023-06-26T08:39:03;29.20;78.20
10270;DHT22;70826;50.930;5.334;2023-06-26T08:41:32;29.20;78.20
10270;DHT22;70826;50.930;5.334;2023-06-26T08:44:02;29.30;78.20
10270;DHT22;70826;50.930;5.334;2023-06-26T08:46:34;29.20;77.90
10270;DHT22;70826;50.930;5.334;2023-06-26T08:49:25;29.20;78.60
10270;DHT22;70826;50.930;5.334;2023-06-26T08:52:15;29.20;77.80
10270;DHT22;70826;50.930;5.334;2023-06-26T08:54:49;29.20;77.60
10270;DHT22;70826;50.930;5.334;2023-06-26T08:57:21;29.20;77.30
10270;DHT22;70826;50.930;5.334;2023-06-26T08:59:48;29.20;77.50
10270;DHT22;70826;50.930;5.334;2023-06-26T09:02:16;29.20;77.40
10270;DHT22;70826;50.930;5.334;2023-06-26T09:04:43;29.10;77.10
10270;DHT22;70826;50.930;5.334;2023-06-26T09:07:09;29.10;77.30
10270;DHT22;70826;50.930;5.334;2023-06-26T09:09:36;29.10;77.20
10270;DHT22;70826;50.930;5.334;2023-06-26T09:12:02;29.10;77.20
10270;DHT22;70826;50.930;5.334;2023-06-26T09:14:29;29.00;77.10
10270;DHT22;70826;50.930;5.334;2023-06-26T09:16:55;29.00;77.30
10270;DHT22;70826;50.930;5.334;2023-06-26T09:19:21;29.00;77.10
10270;DHT22;70826;50.930;5.334;2023-06-26T09:21:49;28.90;77.00
10270;DHT22;70826;50.930;5.334;2023-06-26T09:24:16;28.90;77.20
10270;DHT22;70826;50.930;5.334;2023-06-26T09:26:44;28.90;77.10
10270;DHT22;70826;50.930;5.334;2023-06-26T09:29:13;28.80;76.90
10270;DHT22;70826;50.930;5.334;2023-06-26T09:31:40;28.80;76.70
10270;DHT22;70826;50.930;5.334;2023-06-26T09:34:09;28.80;76.80
10270;DHT22;70826;50.930;5.334;2023-06-26T09:36:38;28.80;76.90
10270;DHT22;70826;50.930;5.334;2023-06-26T09:39:08;28.80;76.80
10270;DHT22;70826;50.930;5.334;2023-06-26T09:41:37;28.70;76.80
10270;DHT22;70826;50.930;5.334;2023-06-26T09:44:11;28.80;77.50
10270;DHT22;70826;50.930;5.334;2023-06-26T09:46:40;28.70;76.70
10270;DHT22;70826;50.930;5.334;2023-06-26T09:49:10;28.70;76.60
10270;DHT22;70826;50.930;5.334;2023-06-26T09:51:38;28.60;76.40
10270;DHT22;70826;50.930;5.334;2023-06-26T09:54:05;28.60;76.40
10270;DHT22;70826;50.930;5.334;2023-06-26T09:56:36;28.70;76.50
10270;DHT22;70826;50.930;5.334;2023-06-26T09:59:06;28.60;76.40
10270;DHT22;70826;50.930;5.334;2023-06-26T10:01:39;28.60;76.30
10270;DHT22;70826;50.930;5.334;2023-06-26T10:04:08;28.60;76.40
10270;DHT22;70826;50.930;5.334;2023-06-26T10:06:41;28.60;76.60
10270;DHT22;70826;50.930;5.334;2023-06-26T10:09:06;28.60;76.80
10270;DHT22;70826;50.930;5.334;2023-06-26T10:11:40;28.60;77.00
10270;DHT22;70826;50.930;5.334;2023-06-26T10:14:14;28.60;77.20
10270;DHT22;70826;50.930;5.334;2023-06-26T10:16:43;28.60;77.40
10270;DHT22;70826;50.930;5.334;2023-06-26T10:19:11;28.60;77.50
10270;DHT22;70826;50.930;5.334;2023-06-26T10:21:39;28.60;77.60
10270;DHT22;70826;50.930;5.334;2023-06-26T10:24:09;28.60;77.70
10270;DHT22;70826;50.930;5.334;2023-06-26T10:26:45;28.60;77.90
10270;DHT22;70826;50.930;5.334;2023-06-26T10:29:12;28.60;78.00
10270;DHT22;70826;50.930;5.334;2023-06-26T10:31:40;28.60;78.10
10270;DHT22;70826;50.930;5.334;2023-06-26T10:34:15;28.60;78.20
10270;DHT22;70826;50.930;5.334;2023-06-26T10:36:46;28.60;78.40
10270;DHT22;70826;50.930;5.334;2023-06-26T10:39:16;28.60;78.40
10270;DHT22;70826;50.930;5.334;2023-06-26T10:41:42;28.60;78.50
10270;DHT22;70826;50.930;5.334;2023-06-26T10:46:54;28.60;78.60
10270;DHT22;70826;50.930;5.334;2023-06-26T10:49:29;28.60;78.70
10270;DHT22;70826;50.930;5.334;2023-06-26T10:51:55;28.60;78.70
10270;DHT22;70826;50.930;5.334;2023-06-26T10:54:29;28.60;78.80
10270;DHT22;70826;50.930;5.334;2023-06-26T10:56:56;28.50;79.00
10270;DHT22;70826;50.930;5.334;2023-06-26T10:59:24;28.50;79.20
10270;DHT22;70826;50.930;5.334;2023-06-26T11:02:05;28.50;79.50
10270;DHT22;70826;50.930;5.334;2023-06-26T11:04:49;28.50;79.80
10270;DHT22;70826;50.930;5.334;2023-06-26T11:07:24;28.40;80.00
10270;DHT22;70826;50.930;5.334;2023-06-26T11:12:38;28.50;80.10
10270;DHT22;70826;50.930;5.334;2023-06-26T11:15:12;28.60;80.10
10270;DHT22;70826;50.930;5.334;2023-06-26T11:17:43;28.60;80.10
10270;DHT22;70826;50.930;5.334;2023-06-26T11:20:13;28.60;80.10
10270;DHT22;70826;50.930;5.334;2023-06-26T11:22:42;28.70;80.20
10270;DHT22;70826;50.930;5.334;2023-06-26T11:25:09;28.70;80.20
10270;DHT22;70826;50.930;5.334;2023-06-26T11:27:40;28.80;80.30
10270;DHT22;70826;50.930;5.334;2023-06-26T11:30:08;28.80;80.30
10270;DHT22;70826;50.930;5.334;2023-06-26T11:32:39;28.80;80.30
10270;DHT22;70826;50.930;5.334;2023-06-26T11:35:05;28.90;80.30
10270;DHT22;70826;50.930;5.334;2023-06-26T11:37:34;28.90;80.30
10270;DHT22;70826;50.930;5.334;2023-06-26T11:40:18;29.00;80.40
10270;DHT22;70826;50.930;5.334;2023-06-26T11:42:45;29.00;80.40
10270;DHT22;70826;50.930;5.334;2023-06-26T11:45:16;29.10;80.40
10270;DHT22;70826;50.930;5.334;2023-06-26T11:47:44;29.10;80.30
10270;DHT22;70826;50.930;5.334;2023-06-26T11:50:15;29.10;80.30
10270;DHT22;70826;50.930;5.334;2023-06-26T11:52:45;29.20;80.20
10270;DHT22;70826;50.930;5.334;2023-06-26T11:55:18;29.20;80.20
10270;DHT22;70826;50.930;5.334;2023-06-26T11:57:57;29.20;80.10
10270;DHT22;70826;50.930;5.334;2023-06-26T12:00:25;29.20;80.10
10270;DHT22;70826;50.930;5.334;2023-06-26T12:02:54;29.30;80.10
10270;DHT22;70826;50.930;5.334;2023-06-26T12:05:25;29.30;80.10
10270;DHT22;70826;50.930;5.334;2023-06-26T12:07:54;29.30;80.10
10270;DHT22;70826;50.930;5.334;2023-06-26T12:10:20;29.40;80.30
10270;DHT22;70826;50.930;5.334;2023-06-26T12:12:47;29.40;80.30
10270;DHT22;70826;50.930;5.334;2023-06-26T12:15:19;29.50;80.30
10270;DHT22;70826;50.930;5.334;2023-06-26T12:17:45;29.50;80.20
10270;DHT22;70826;50.930;5.334;2023-06-26T12:20:25;29.60;80.20
10270;DHT22;70826;50.930;5.334;2023-06-26T12:22:53;29.60;80.00
10270;DHT22;70826;50.930;5.334;2023-06-26T12:25:23;29.70;79.90
10270;DHT22;70826;50.930;5.334;2023-06-26T12:27:49;29.80;79.90
10270;DHT22;70826;50.930;5.334;2023-06-26T12:30:15;29.80;79.90
10270;DHT22;70826;50.930;5.334;2023-06-26T12:32:44;29.80;79.80
10270;DHT22;70826;50.930;5.334;2023-06-26T12:35:10;29.90;79.70
10270;DHT22;70826;50.930;5.334;2023-06-26T12:37:39;30.00;79.80
10270;DHT22;70826;50.930;5.334;2023-06-26T12:40:18;30.00;79.60
10270;DHT22;70826;50.930;5.334;2023-06-26T12:42:47;30.00;79.50
10270;DHT22;70826;50.930;5.334;2023-06-26T12:45:16;30.00;79.50
10270;DHT22;70826;50.930;5.334;2023-06-26T12:47:45;30.10;79.60
10270;DHT22;70826;50.930;5.334;2023-06-26T12:50:12;30.10;79.70
10270;DHT22;70826;50.930;5.334;2023-06-26T12:52:37;30.10;79.60
10270;DHT22;70826;50.930;5.334;2023-06-26T12:55:07;30.10;79.60
10270;DHT22;70826;50.930;5.334;2023-06-26T12:57:33;30.10;79.30
10270;DHT22;70826;50.930;5.334;2023-06-26T12:59:58;30.10;79.20
10270;DHT22;70826;50.930;5.334;2023-06-26T13:02:25;30.20;79.20
10270;DHT22;70826;50.930;5.334;2023-06-26T13:04:53;30.20;79.10
10270;DHT22;70826;50.930;5.334;2023-06-26T13:07:19;30.20;79.00
10270;DHT22;70826;50.930;5.334;2023-06-26T13:09:47;30.20;78.90
10270;DHT22;70826;50.930;5.334;2023-06-26T13:12:13;30.20;78.90
10270;DHT22;70826;50.930;5.334;2023-06-26T13:14:41;30.20;78.80
10270;DHT22;70826;50.930;5.334;2023-06-26T13:17:07;30.20;79.00
10270;DHT22;70826;50.930;5.334;2023-06-26T13:19:37;30.20;79.00
10270;DHT22;70826;50.930;5.334;2023-06-26T13:22:03;30.20;79.00
10270;DHT22;70826;50.930;5.334;2023-06-26T13:24:31;30.20;79.00
10270;DHT22;70826;50.930;5.334;2023-06-26T13:26:59;30.10;78.80
10270;DHT22;70826;50.930;5.334;2023-06-26T13:29:24;30.10;78.70
10270;DHT22;70826;50.930;5.334;2023-06-26T13:31:50;30.10;78.60
10270;DHT22;70826;50.930;5.334;2023-06-26T13:34:23;30.10;78.50
10270;DHT22;70826;50.930;5.334;2023-06-26T13:36:50;30.10;78.40
10270;DHT22;70826;50.930;5.334;2023-06-26T13:39:18;30.00;78.30
10270;DHT22;70826;50.930;5.334;2023-06-26T13:41:44;30.00;78.30
10270;DHT22;70826;50.930;5.334;2023-06-26T13:44:10;30.00;78.40
10270;DHT22;70826;50.930;5.334;2023-06-26T13:46:41;29.90;78.30
10270;DHT22;70826;50.930;5.334;2023-06-26T13:49:09;29.90;78.40
10270;DHT22;70826;50.930;5.334;2023-06-26T13:51:38;29.90;78.30
10270;DHT22;70826;50.930;5.334;2023-06-26T13:54:10;29.80;78.30
10270;DHT22;70826;50.930;5.334;2023-06-26T13:56:39;29.80;78.30
10270;DHT22;70826;50.930;5.334;2023-06-26T13:59:07;29.70;78.30
10270;DHT22;70826;50.930;5.334;2023-06-26T14:01:33;29.70;78.30
10270;DHT22;70826;50.930;5.334;2023-06-26T14:03:59;29.70;78.30
10270;DHT22;70826;50.930;5.334;2023-06-26T14:06:25;29.70;78.30
10270;DHT22;70826;50.930;5.334;2023-06-26T14:08:55;29.60;78.30
10270;DHT22;70826;50.930;5.334;2023-06-26T14:11:21;29.60;78.30
10270;DHT22;70826;50.930;5.334;2023-06-26T14:13:50;29.60;78.30
10270;DHT22;70826;50.930;5.334;2023-06-26T14:16:21;29.50;78.30
10270;DHT22;70826;50.930;5.334;2023-06-26T14:18:51;29.50;78.30
10270;DHT22;70826;50.930;5.334;2023-06-26T14:21:19;29.40;78.30
10270;DHT22;70826;50.930;5.334;2023-06-26T14:23:47;29.40;78.40
10270;DHT22;70826;50.930;5.334;2023-06-26T14:26:18;29.40;78.40
10270;DHT22;70826;50.930;5.334;2023-06-26T14:28:46;29.40;78.50
10270;DHT22;70826;50.930;5.334;2023-06-26T14:31:14;29.30;78.40
10270;DHT22;70826;50.930;5.334;2023-06-26T14:33:40;29.30;78.40
10270;DHT22;70826;50.930;5.334;2023-06-26T14:36:07;29.30;78.40
10270;DHT22;70826;50.930;5.334;2023-06-26T14:38:35;29.30;78.50
10270;DHT22;70826;50.930;5.334;2023-06-26T14:41:02;29.20;78.40
10270;DHT22;70826;50.930;5.334;2023-06-26T14:43:27;29.20;78.50
10270;DHT22;70826;50.930;5.334;2023-06-26T14:45:53;29.20;78.50
10270;DHT22;70826;50.930;5.334;2023-06-26T14:48:24;29.20;78.50
10270;DHT22;70826;50.930;5.334;2023-06-26T14:50:54;29.20;78.50
10270;DHT22;70826;50.930;5.334;2023-06-26T14:53:20;29.20;78.60
10270;DHT22;70826;50.930;5.334;2023-06-26T14:55:50;29.20;78.70
10270;DHT22;70826;50.930;5.334;2023-06-26T14:58:16;29.20;78.60
10270;DHT22;70826;50.930;5.334;2023-06-26T15:00:42;29.10;79.10
10270;DHT22;70826;50.930;5.334;2023-06-26T15:03:09;29.10;78.60
10270;DHT22;70826;50.930;5.334;2023-06-26T15:05:35;29.10;78.60
10270;DHT22;70826;50.930;5.334;2023-06-26T15:08:01;29.10;78.60
10270;DHT22;70826;50.930;5.334;2023-06-26T15:10:29;29.10;78.60
10270;DHT22;70826;50.930;5.334;2023-06-26T15:12:54;29.10;78.60
10270;DHT22;70826;50.930;5.334;2023-06-26T15:15:20;29.00;78.60
10270;DHT22;70826;50.930;5.334;2023-06-26T15:17:46;29.10;78.60
10270;DHT22;70826;50.930;5.334;2023-06-26T15:20:14;29.10;78.60
10270;DHT22;70826;50.930;5.334;2023-06-26T15:22:39;29.00;78.60
10270;DHT22;70826;50.930;5.334;2023-06-26T15:25:08;29.00;78.60
10270;DHT22;70826;50.930;5.334;2023-06-26T15:27:34;29.00;78.60
10270;DHT22;70826;50.930;5.334;2023-06-26T15:30:00;29.00;78.60
10270;DHT22;70826;50.930;5.334;2023-06-26T15:32:25;29.00;78.60
10270;DHT22;70826;50.930;5.334;2023-06-26T15:34:52;29.00;78.60
10270;DHT22;70826;50.930;5.334;2023-06-26T15:37:19;28.90;78.50
10270;DHT22;70826;50.930;5.334;2023-06-26T15:39:45;29.00;78.60
10270;DHT22;70826;50.930;5.334;2023-06-26T15:42:10;28.90;78.50
10270;DHT22;70826;50.930;5.334;2023-06-26T15:44:37;29.00;78.50
10270;DHT22;70826;50.930;5.334;2023-06-26T15:47:07;28.90;78.50